createdAt,value
2023-03-30T00:01:12.229Z,80.49
2023-03-30T00:03:39.991Z,80.09
2023-03-30T00:06:08.923Z,81.88
2023-03-30T00:08:37.848Z,81.66
2023-03-30T00:11:17.071Z,82.67
2023-03-30T00:13:45.258Z,82.49
2023-03-30T00:16:14.210Z,81.75
2023-03-30T00:18:41.812Z,81.52
2023-03-30T00:21:11.111Z,81.47
2023-03-30T00:23:39.703Z,81.97
2023-03-30T00:26:08.892Z,81.90
2023-03-30T00:28:36.544Z,81.69
2023-03-30T00:31:04.690Z,81.70
2023-03-30T00:33:44.832Z,80.71
2023-03-30T00:36:14.877Z,81.67
2023-03-30T00:38:42.520Z,81.73
2023-03-30T00:41:10.378Z,81.33
2023-03-30T00:43:59.787Z,80.87
2023-03-30T00:46:31.312Z,80.75
2023-03-30T00:49:05.409Z,82.03
2023-03-30T00:51:36.333Z,81.39
2023-03-30T00:54:15.408Z,81.35
2023-03-30T00:56:43.076Z,82.15
2023-03-30T00:59:10.912Z,83.57
2023-03-30T01:01:41.411Z,84.81
2023-03-30T01:04:10.177Z,83.91
2023-03-30T01:06:40.487Z,83.02
2023-03-30T01:09:08.748Z,84.43
2023-03-30T01:11:36.609Z,84.45
2023-03-30T01:14:08.138Z,84.19
2023-03-30T01:17:01.682Z,83.41
2023-03-30T01:19:38.852Z,81.98
2023-03-30T01:22:32.393Z,83.60
2023-03-30T01:25:34.331Z,84.29
2023-03-30T01:28:07.796Z,84.17
2023-03-30T01:31:08.899Z,84.74
2023-03-30T01:34:28.132Z,85.31
2023-03-30T01:37:06.478Z,85.52
2023-03-30T01:39:59.161Z,86.65
2023-03-30T01:42:45.882Z,85.80
2023-03-30T01:45:29.038Z,87.40
2023-03-30T01:48:07.667Z,86.94
2023-03-30T01:50:47.345Z,88.04
2023-03-30T01:53:17.581Z,88.35
2023-03-30T01:55:56.188Z,88.44
2023-03-30T01:58:33.338Z,88.60
2023-03-30T02:01:04.319Z,88.37
2023-03-30T02:03:37.777Z,87.75
2023-03-30T02:06:43.308Z,86.54
2023-03-30T02:09:15.629Z,86.35
2023-03-30T02:11:47.878Z,86.90
2023-03-30T02:14:17.552Z,86.08
2023-03-30T02:16:50.682Z,85.60
2023-03-30T02:19:19.681Z,86.00
2023-03-30T02:21:48.056Z,87.18
2023-03-30T02:24:20.648Z,87.17
2023-03-30T02:26:51.743Z,88.77
2023-03-30T02:29:20.587Z,88.26
2023-03-30T02:31:50.262Z,89.16
2023-03-30T02:34:44.024Z,90.35
2023-03-30T02:37:14.734Z,89.38
2023-03-30T02:40:13.967Z,89.51
2023-03-30T02:43:08.977Z,89.34
2023-03-30T02:46:04.983Z,88.75
2023-03-30T02:48:51.906Z,88.76
2023-03-30T02:51:22.376Z,89.64
2023-03-30T02:54:41.651Z,89.74
2023-03-30T02:57:49.694Z,90.12
2023-03-30T03:00:50.774Z,90.63
2023-03-30T03:03:27.827Z,90.36
2023-03-30T03:05:56.713Z,91.55
2023-03-30T03:08:39.838Z,92.06
2023-03-30T03:11:10.970Z,91.36
2023-03-30T03:13:39.745Z,91.44
2023-03-30T03:16:11.140Z,91.14
2023-03-30T03:18:42.037Z,91.11
2023-03-30T03:21:11.024Z,92.07
2023-03-30T03:23:40.418Z,92.24
2023-03-30T03:26:11.722Z,92.63
2023-03-30T03:28:39.552Z,92.86
2023-03-30T03:31:08.463Z,92.39
2023-03-30T03:33:36.068Z,92.76
2023-03-30T03:36:16.021Z,92.67
2023-03-30T03:38:49.075Z,93.84
2023-03-30T03:41:17.457Z,93.14
2023-03-30T03:43:45.056Z,93.38
2023-03-30T03:46:14.146Z,93.37
2023-03-30T03:48:42.333Z,92.73
2023-03-30T03:51:10.003Z,93.14
2023-03-30T03:53:38.225Z,92.31
2023-03-30T03:56:08.597Z,93.08
2023-03-30T03:58:36.636Z,94.18
2023-03-30T04:01:04.328Z,94.58
2023-03-30T04:03:32.154Z,94.38
2023-03-30T04:06:01.129Z,94.50
2023-03-30T04:08:29.489Z,93.53
2023-03-30T04:11:08.772Z,93.95
2023-03-30T04:13:55.278Z,94.47
2023-03-30T04:16:37.536Z,93.77
2023-03-30T04:19:37.628Z,93.47
2023-03-30T04:22:19.846Z,93.77
2023-03-30T04:25:25.847Z,93.85
2023-03-30T04:28:12.904Z,93.37
2023-03-30T04:31:01.360Z,93.71
2023-03-30T04:33:59.036Z,93.54
2023-03-30T04:36:54.159Z,93.93
2023-03-30T04:39:41.694Z,93.90
2023-03-30T04:42:30.628Z,93.58
2023-03-30T04:45:31.272Z,93.62
2023-03-30T04:48:31.362Z,92.96
2023-03-30T04:51:17.938Z,91.29
2023-03-30T04:54:04.153Z,91.21
2023-03-30T04:56:50.321Z,92.20
2023-03-30T04:59:36.776Z,90.61
2023-03-30T05:02:24.254Z,91.52
2023-03-30T05:05:27.078Z,91.53
2023-03-30T05:08:30.314Z,91.10
2023-03-30T05:11:16.539Z,88.94
2023-03-30T05:14:14.285Z,88.81
2023-03-30T05:17:19.827Z,89.55
2023-03-30T05:20:18.282Z,89.05
2023-03-30T05:23:12.163Z,88.92
2023-03-30T05:25:58.517Z,90.17
2023-03-30T05:28:48.878Z,88.87
2023-03-30T05:31:34.921Z,90.37
2023-03-30T05:34:21.552Z,91.25
2023-03-30T05:37:15.523Z,92.45
2023-03-30T05:39:58.947Z,91.55
2023-03-30T05:43:04.814Z,89.75
2023-03-30T05:45:50.549Z,89.45
2023-03-30T05:48:31.923Z,91.53
2023-03-30T05:51:22.619Z,91.90
2023-03-30T05:54:06.071Z,91.13
2023-03-30T05:56:52.820Z,90.73
2023-03-30T05:59:33.151Z,91.51
2023-03-30T06:02:24.684Z,91.48
2023-03-30T06:04:56.450Z,90.32
2023-03-30T06:07:24.417Z,89.42
2023-03-30T06:09:51.885Z,88.06
2023-03-30T06:12:26.771Z,89.12
2023-03-30T06:14:55.135Z,88.20
2023-03-30T06:17:27.857Z,88.38
2023-03-30T06:19:55.599Z,87.32
2023-03-30T06:22:23.656Z,87.39
2023-03-30T06:25:02.475Z,85.98
2023-03-30T06:27:33.015Z,86.06
2023-03-30T06:30:01.689Z,84.50
2023-03-30T06:32:29.649Z,83.67
2023-03-30T06:35:17.628Z,82.62
2023-03-30T06:37:45.382Z,82.22
2023-03-30T06:40:13.906Z,83.13
2023-03-30T06:42:44.819Z,83.61
2023-03-30T06:45:38.723Z,82.24
2023-03-30T06:48:07.199Z,81.89
2023-03-30T06:50:38.855Z,81.15
2023-03-30T06:53:17.043Z,81.63
2023-03-30T06:55:54.821Z,82.51
2023-03-30T06:58:23.790Z,81.99
2023-03-30T07:00:51.743Z,82.35
2023-03-30T07:03:30.042Z,81.94
2023-03-30T07:06:12.507Z,82.04
2023-03-30T07:08:40.706Z,81.98
2023-03-30T07:11:11.177Z,82.26
2023-03-30T07:13:40.887Z,82.16
2023-03-30T07:16:09.532Z,81.82
2023-03-30T07:18:38.706Z,80.69
2023-03-30T07:21:07.238Z,80.50
2023-03-30T07:23:43.373Z,81.86
2023-03-30T07:26:16.737Z,82.15
2023-03-30T07:28:52.750Z,82.06
2023-03-30T07:31:24.530Z,81.51
2023-03-30T07:33:52.653Z,80.95
2023-03-30T07:36:24.878Z,80.41
2023-03-30T07:38:53.486Z,81.82
2023-03-30T07:41:21.227Z,80.61
2023-03-30T07:43:53.137Z,80.09
2023-03-30T07:46:20.790Z,80.58
2023-03-30T07:48:52.905Z,80.50
2023-03-30T07:51:21.001Z,80.21
2023-03-30T07:53:56.770Z,80.64
2023-03-30T07:56:33.666Z,80.98
2023-03-30T07:59:01.940Z,80.05
2023-03-30T08:01:34.191Z,80.05
2023-03-30T08:04:33.968Z,79.03
2023-03-30T08:07:02.006Z,76.62
2023-03-30T08:09:30.776Z,76.83
2023-03-30T08:11:58.446Z,76.89
2023-03-30T08:14:27.496Z,76.82
2023-03-30T08:16:55.688Z,76.44
2023-03-30T08:19:25.092Z,77.43
2023-03-30T08:21:52.602Z,76.66
2023-03-30T08:24:20.092Z,77.17
2023-03-30T08:26:47.575Z,75.72
2023-03-30T08:29:15.093Z,76.76
2023-03-30T08:31:43.250Z,76.13
2023-03-30T08:34:11.588Z,77.41
2023-03-30T08:36:39.684Z,75.19
2023-03-30T08:39:07.190Z,76.03
2023-03-30T08:42:13.075Z,75.89
2023-03-30T08:44:46.667Z,74.20
2023-03-30T08:47:26.204Z,73.44
2023-03-30T08:50:14.146Z,74.53
2023-03-30T08:52:42.587Z,73.35
2023-03-30T08:55:38.909Z,74.47
2023-03-30T08:58:23.254Z,72.30
2023-03-30T09:01:00.488Z,72.68
2023-03-30T09:03:37.189Z,72.27
2023-03-30T09:06:19.392Z,74.34
2023-03-30T09:08:48.452Z,75.03
2023-03-30T09:11:25.046Z,74.30
2023-03-30T09:13:53.062Z,71.26
2023-03-30T09:16:29.621Z,74.05
2023-03-30T09:19:00.128Z,74.32
2023-03-30T09:21:31.521Z,73.04
2023-03-30T09:24:01.625Z,73.55
2023-03-30T09:27:08.441Z,72.46
2023-03-30T09:29:47.066Z,72.29
2023-03-30T09:32:40.786Z,72.44
2023-03-30T09:35:11.909Z,72.74
2023-03-30T09:37:39.773Z,73.55
2023-03-30T09:40:16.718Z,73.08
2023-03-30T09:42:51.412Z,74.40
2023-03-30T09:45:28.204Z,75.62
2023-03-30T09:47:56.697Z,77.05
2023-03-30T09:50:28.657Z,75.31
2023-03-30T09:53:01.736Z,74.76
2023-03-30T09:55:29.430Z,76.48
2023-03-30T09:58:19.515Z,76.11
2023-03-30T10:01:02.174Z,75.75
2023-03-30T10:03:29.946Z,75.63
2023-03-30T10:06:03.880Z,75.27
2023-03-30T10:08:32.239Z,74.64
2023-03-30T10:11:00.709Z,74.47
2023-03-30T10:13:33.795Z,76.02
2023-03-30T10:16:22.175Z,76.40
2023-03-30T10:18:53.546Z,75.17
2023-03-30T10:21:29.095Z,75.03
2023-03-30T10:24:22.935Z,73.34
2023-03-30T10:26:59.906Z,73.51
2023-03-30T10:29:29.799Z,73.66
2023-03-30T10:32:08.600Z,74.41
2023-03-30T10:34:42.686Z,74.36
2023-03-30T10:37:23.064Z,74.41
2023-03-30T10:39:53.170Z,74.08
2023-03-30T10:42:25.837Z,74.32
2023-03-30T10:45:00.543Z,74.66
2023-03-30T10:47:40.914Z,74.13
2023-03-30T10:50:32.834Z,74.43
2023-03-30T10:53:09.291Z,75.35
2023-03-30T10:55:55.167Z,75.81
2023-03-30T10:58:40.800Z,75.46
2023-03-30T11:01:20.927Z,74.91
2023-03-30T11:03:54.734Z,74.85
2023-03-30T11:06:32.134Z,75.21
2023-03-30T11:09:04.774Z,75.07
2023-03-30T11:11:59.726Z,75.20
2023-03-30T11:14:41.694Z,75.10
2023-03-30T11:17:32.182Z,75.65
2023-03-30T11:20:10.221Z,75.42
2023-03-30T11:22:49.432Z,76.07
2023-03-30T11:25:24.926Z,75.98
2023-03-30T11:28:22.697Z,76.68
2023-03-30T11:30:56.596Z,77.22
2023-03-30T11:33:36.510Z,76.25
2023-03-30T11:36:06.990Z,76.18
2023-03-30T11:38:51.966Z,74.55
2023-03-30T11:41:56.035Z,74.67
2023-03-30T11:44:23.628Z,73.98
2023-03-30T11:46:59.503Z,74.50
2023-03-30T11:49:33.284Z,73.85
2023-03-30T11:52:27.626Z,73.57
2023-03-30T11:55:20.124Z,72.18
2023-03-30T11:58:07.877Z,73.22
2023-03-30T12:00:51.313Z,71.01
2023-03-30T12:03:50.139Z,72.04
2023-03-30T12:06:29.729Z,70.93
2023-03-30T12:09:04.743Z,69.51
2023-03-30T12:11:54.262Z,68.70
2023-03-30T12:14:47.211Z,68.71
2023-03-30T12:17:35.152Z,67.63
2023-03-30T12:20:15.010Z,67.66
2023-03-30T12:22:48.810Z,68.11
2023-03-30T12:26:01.658Z,68.14
2023-03-30T12:28:59.350Z,67.58
2023-03-30T12:31:56.018Z,68.43
2023-03-30T12:34:27.181Z,67.69
2023-03-30T12:37:00.781Z,67.03
2023-03-30T12:39:44.886Z,67.52
2023-03-30T12:42:27.050Z,66.80
2023-03-30T12:45:00.512Z,66.18
2023-03-30T12:47:46.239Z,66.64
2023-03-30T12:50:26.208Z,66.69
2023-03-30T12:52:53.798Z,66.85
2023-03-30T12:55:21.317Z,65.80
2023-03-30T12:58:26.821Z,67.01
2023-03-30T13:01:23.803Z,66.53
2023-03-30T13:03:53.096Z,66.16
2023-03-30T13:06:37.149Z,65.89
2023-03-30T13:09:27.876Z,64.38
2023-03-30T13:11:55.308Z,64.56
2023-03-30T13:14:39.257Z,64.51
2023-03-30T13:17:13.928Z,64.41
2023-03-30T13:19:48.943Z,63.15
2023-03-30T13:22:16.742Z,62.05
2023-03-30T13:24:58.801Z,62.38
2023-03-30T13:27:41.845Z,63.70
2023-03-30T13:30:09.496Z,63.62
2023-03-30T13:32:40.301Z,63.35
2023-03-30T13:35:31.314Z,61.15
2023-03-30T13:38:29.427Z,62.67
2023-03-30T13:41:33.436Z,62.58
2023-03-30T13:44:27.707Z,62.44
2023-03-30T13:47:29.540Z,63.19
2023-03-30T13:50:04.500Z,62.57
2023-03-30T13:52:46.078Z,64.00
2023-03-30T13:55:23.638Z,63.25
2023-03-30T13:57:58.254Z,62.69
2023-03-30T14:00:49.809Z,63.18
2023-03-30T14:03:35.076Z,63.55
2023-03-30T14:06:14.385Z,62.71
2023-03-30T14:08:48.246Z,63.69
2023-03-30T14:11:17.423Z,64.15
2023-03-30T14:13:52.369Z,62.12
2023-03-30T14:16:24.617Z,62.92
2023-03-30T14:18:53.649Z,62.38
2023-03-30T14:21:24.255Z,62.90
2023-03-30T14:23:54.162Z,61.92
2023-03-30T14:26:27.900Z,64.61
2023-03-30T14:29:03.245Z,64.25
2023-03-30T14:31:42.356Z,66.29
2023-03-30T14:34:23.200Z,66.26
2023-03-30T14:36:50.859Z,66.08
2023-03-30T14:39:21.354Z,65.53
2023-03-30T14:41:49.541Z,64.25
2023-03-30T14:44:21.620Z,64.61
2023-03-30T14:46:55.578Z,65.26
2023-03-30T14:49:27.596Z,64.06
2023-03-30T14:52:22.756Z,64.40
2023-03-30T14:55:05.917Z,64.76
2023-03-30T14:57:40.569Z,63.78
2023-03-30T15:00:17.132Z,63.94
2023-03-30T15:02:45.958Z,64.08
2023-03-30T15:05:17.414Z,62.49
2023-03-30T15:07:53.056Z,61.79
2023-03-30T15:10:42.094Z,62.82
2023-03-30T15:13:17.251Z,62.47
2023-03-30T15:15:44.809Z,62.15
2023-03-30T15:18:20.314Z,61.38
2023-03-30T15:20:48.812Z,61.81
2023-03-30T15:23:16.941Z,62.48
2023-03-30T15:25:45.306Z,62.82
2023-03-30T15:28:19.192Z,62.41
2023-03-30T15:30:52.298Z,63.59
2023-03-30T15:33:23.896Z,63.22
2023-03-30T15:35:53.515Z,64.48
2023-03-30T15:38:31.165Z,65.67
2023-03-30T15:40:58.874Z,65.35
2023-03-30T15:43:33.710Z,64.28
2023-03-30T15:46:04.457Z,65.63
2023-03-30T15:48:46.341Z,67.07
2023-03-30T15:51:24.963Z,68.05
2023-03-30T15:53:58.272Z,67.15
2023-03-30T15:57:10.200Z,66.05
2023-03-30T15:59:43.338Z,66.49
2023-03-30T16:02:23.860Z,66.76
2023-03-30T16:04:51.826Z,66.61
2023-03-30T16:07:21.729Z,68.02
2023-03-30T16:09:49.557Z,66.95
2023-03-30T16:12:20.733Z,66.00
2023-03-30T16:14:49.173Z,66.41
2023-03-30T16:17:17.134Z,67.84
2023-03-30T16:19:44.942Z,67.53
2023-03-30T16:22:14.147Z,68.10
2023-03-30T16:24:42.499Z,68.32
2023-03-30T16:27:15.633Z,69.08
2023-03-30T16:29:43.503Z,68.00
2023-03-30T16:32:11.027Z,70.56
2023-03-30T16:34:39.359Z,69.79
2023-03-30T16:37:09.429Z,69.51
2023-03-30T16:39:36.980Z,70.99
2023-03-30T16:42:04.616Z,71.25
2023-03-30T16:44:32.298Z,71.22
2023-03-30T16:46:59.811Z,71.72
2023-03-30T16:49:27.406Z,73.62
2023-03-30T16:51:57.937Z,72.29
2023-03-30T16:54:31.204Z,73.03
2023-03-30T16:57:01.543Z,72.94
2023-03-30T16:59:31.118Z,73.47
2023-03-30T17:02:00.215Z,68.55
2023-03-30T17:04:28.128Z,68.58
2023-03-30T17:06:55.841Z,68.11
2023-03-30T17:09:23.874Z,70.80
2023-03-30T17:11:51.519Z,70.18
2023-03-30T17:14:20.864Z,69.06
2023-03-30T17:16:48.341Z,75.00
2023-03-30T17:19:15.974Z,75.44
2023-03-30T17:21:44.349Z,76.27
2023-03-30T17:24:12.724Z,77.61
2023-03-30T17:26:41.414Z,77.92
2023-03-30T17:29:10.340Z,77.92
2023-03-30T17:31:38.999Z,78.95
2023-03-30T17:34:07.524Z,79.81
2023-03-30T17:36:35.339Z,78.15
2023-03-30T17:39:05.708Z,80.47
2023-03-30T17:41:34.369Z,80.12
2023-03-30T17:44:01.889Z,81.58
2023-03-30T17:46:29.617Z,81.43
2023-03-30T17:48:58.790Z,82.03
2023-03-30T17:51:26.546Z,82.36
2023-03-30T17:53:54.099Z,83.13
2023-03-30T17:56:21.597Z,80.54
2023-03-30T17:58:49.716Z,82.20
2023-03-30T18:01:17.544Z,78.87
2023-03-30T18:03:45.662Z,79.10
2023-03-30T18:06:13.651Z,80.14
2023-03-30T18:08:42.974Z,81.22
2023-03-30T18:11:11.014Z,78.93
2023-03-30T18:13:38.801Z,78.89
2023-03-30T18:16:06.600Z,80.42
2023-03-30T18:18:34.256Z,80.02
2023-03-30T18:21:03.938Z,80.33
2023-03-30T18:23:34.221Z,79.79
2023-03-30T18:26:08.292Z,80.40
2023-03-30T18:28:40.554Z,81.54
2023-03-30T18:31:08.898Z,80.16
2023-03-30T18:33:36.600Z,79.31
2023-03-30T18:36:08.023Z,81.82
2023-03-30T18:38:35.994Z,81.25
2023-03-30T18:41:03.710Z,81.52
2023-03-30T18:43:31.197Z,80.94
2023-03-30T18:46:01.676Z,78.67
2023-03-30T18:48:30.046Z,79.28
2023-03-30T18:50:57.563Z,80.05
2023-03-30T18:53:27.891Z,78.65
2023-03-30T18:55:58.624Z,79.28
2023-03-30T18:58:28.849Z,80.93
2023-03-30T19:00:57.885Z,82.01
2023-03-30T19:03:27.564Z,81.74
2023-03-30T19:05:55.552Z,80.79
2023-03-30T19:08:25.291Z,81.10
2023-03-30T19:10:57.619Z,79.37
2023-03-30T19:13:26.974Z,81.07
2023-03-30T19:15:55.562Z,81.58
2023-03-30T19:18:23.480Z,83.18
2023-03-30T19:20:51.962Z,84.69
2023-03-30T19:23:21.986Z,84.99
2023-03-30T19:25:50.836Z,84.80
2023-03-30T19:28:21.379Z,85.00
2023-03-30T19:30:49.904Z,86.23
2023-03-30T19:33:19.850Z,86.04
2023-03-30T19:35:48.218Z,87.41
2023-03-30T19:38:16.286Z,87.06
2023-03-30T19:40:45.250Z,85.76
2023-03-30T19:43:13.789Z,86.71
2023-03-30T19:45:42.483Z,86.08
2023-03-30T19:48:11.194Z,87.75
2023-03-30T19:50:40.815Z,87.40
2023-03-30T19:53:09.763Z,87.88
2023-03-30T19:55:38.404Z,87.83
2023-03-30T19:58:06.597Z,88.64
2023-03-30T20:00:35.197Z,85.63
2023-03-30T20:03:03.908Z,82.09
2023-03-30T20:05:31.847Z,81.63
2023-03-30T20:08:03.560Z,82.60
2023-03-30T20:10:35.426Z,81.99
2023-03-30T20:13:02.946Z,80.28
2023-03-30T20:15:30.921Z,79.26
2023-03-30T20:17:59.616Z,80.95
2023-03-30T20:20:27.274Z,78.97
2023-03-30T20:22:56.476Z,81.76
2023-03-30T20:25:24.961Z,82.82
2023-03-30T20:27:53.809Z,83.33
2023-03-30T20:30:21.757Z,83.36
2023-03-30T20:33:03.921Z,80.95
2023-03-30T20:35:38.326Z,81.22
2023-03-30T20:38:08.399Z,80.14
2023-03-30T20:40:36.248Z,79.28
2023-03-30T20:43:03.888Z,78.65
2023-03-30T20:45:31.841Z,81.08
2023-03-30T20:48:06.043Z,83.35
2023-03-30T20:50:33.970Z,84.14
2023-03-30T20:53:02.203Z,85.26
2023-03-30T20:55:29.745Z,85.33
2023-03-30T20:57:57.220Z,86.25
2023-03-30T21:00:24.796Z,87.08
2023-03-30T21:02:52.347Z,87.92
2023-03-30T21:05:19.905Z,88.67
2023-03-30T21:07:47.984Z,89.29
2023-03-30T21:10:16.870Z,90.00
2023-03-30T21:12:44.399Z,90.96
2023-03-30T21:15:11.958Z,91.47
2023-03-30T21:17:39.393Z,91.58
2023-03-30T21:20:09.357Z,92.22
2023-03-30T21:22:36.974Z,93.90
2023-03-30T21:25:04.722Z,93.65
2023-03-30T21:27:32.348Z,95.07
2023-03-30T21:29:59.830Z,95.81
2023-03-30T21:32:28.648Z,96.04
2023-03-30T21:34:57.568Z,95.03
2023-03-30T21:37:25.262Z,96.66
2023-03-30T21:39:52.735Z,97.86
2023-03-30T21:42:20.467Z,97.36
2023-03-30T21:44:47.924Z,97.52
2023-03-30T21:47:16.730Z,96.06
2023-03-30T21:49:44.303Z,95.89
2023-03-30T21:52:11.903Z,96.34
2023-03-30T21:54:39.570Z,95.72
2023-03-30T21:57:10.221Z,96.57
2023-03-30T21:59:37.753Z,96.08
2023-03-30T22:02:05.510Z,96.53
2023-03-30T22:04:33.152Z,97.39
2023-03-30T22:07:01.057Z,96.50
2023-03-30T22:09:28.658Z,97.41
2023-03-30T22:11:56.148Z,97.63
2023-03-30T22:14:23.720Z,97.81
2023-03-30T22:16:51.190Z,97.11
2023-03-30T22:19:21.079Z,97.13
2023-03-30T22:21:49.456Z,96.57
2023-03-30T22:24:18.380Z,97.08
2023-03-30T22:26:46.462Z,97.24
2023-03-30T22:29:13.900Z,97.94
2023-03-30T22:31:41.680Z,98.80
2023-03-30T22:34:09.253Z,98.76
2023-03-30T22:36:36.852Z,98.28
2023-03-30T22:39:04.609Z,99.56
2023-03-30T22:41:32.136Z,100.00
2023-03-30T22:43:59.909Z,100.00
2023-03-30T22:46:28.068Z,100.00
2023-03-30T22:48:56.343Z,100.00
2023-03-30T22:51:28.311Z,100.00
2023-03-30T22:53:59.973Z,100.00
2023-03-30T22:56:29.241Z,100.00
2023-03-30T22:58:57.969Z,100.00
2023-03-30T23:01:26.014Z,100.00
2023-03-30T23:03:54.519Z,100.00
2023-03-30T23:06:22.120Z,100.00
2023-03-30T23:08:49.596Z,100.00
2023-03-30T23:11:17.177Z,100.00
2023-03-30T23:13:44.654Z,100.00
2023-03-30T23:16:12.213Z,100.00
2023-03-30T23:18:39.863Z,100.00
2023-03-30T23:21:08.234Z,100.00
2023-03-30T23:23:36.419Z,100.00
2023-03-30T23:26:09.053Z,100.00
2023-03-30T23:28:39.037Z,100.00
2023-03-30T23:31:15.553Z,100.00
2023-03-30T23:33:43.356Z,100.00
2023-03-30T23:36:17.342Z,100.00
2023-03-30T23:38:46.023Z,100.00
2023-03-30T23:41:16.203Z,100.00
2023-03-30T23:43:44.555Z,100.00
2023-03-30T23:46:13.584Z,100.00
2023-03-30T23:48:42.245Z,100.00
2023-03-30T23:51:09.864Z,100.00
2023-03-30T23:53:40.380Z,100.00
2023-03-30T23:56:12.751Z,100.00
2023-03-30T23:58:40.677Z,100.00
